sensor_id;sensor_type;location;lat;lon;timestamp;P1;durP1;ratioP1;P2;durP2;ratioP2
22665;SDS011;11499;49.486;11.104;2023-04-24T00:01:13;3.80;;;2.00;;
22665;SDS011;11499;49.486;11.104;2023-04-24T00:03:38;3.73;;;2.40;;
22665;SDS011;11499;49.486;11.104;2023-04-24T00:06:04;2.17;;;1.90;;
22665;SDS011;11499;49.486;11.104;2023-04-24T00:08:33;2.23;;;2.03;;
22665;SDS011;11499;49.486;11.104;2023-04-24T00:10:59;2.40;;;1.70;;
22665;SDS011;11499;49.486;11.104;2023-04-24T00:13:24;3.33;;;2.17;;
22665;SDS011;11499;49.486;11.104;2023-04-24T00:18:31;2.17;;;1.97;;
22665;SDS011;11499;49.486;11.104;2023-04-24T00:20:56;3.30;;;2.37;;
22665;SDS011;11499;49.486;11.104;2023-04-24T00:23:22;3.77;;;2.30;;
22665;SDS011;11499;49.486;11.104;2023-04-24T00:25:47;3.03;;;1.80;;
22665;SDS011;11499;49.486;11.104;2023-04-24T00:28:13;2.63;;;2.03;;
22665;SDS011;11499;49.486;11.104;2023-04-24T00:30:38;3.20;;;2.10;;
22665;SDS011;11499;49.486;11.104;2023-04-24T00:33:05;2.77;;;2.07;;
22665;SDS011;11499;49.486;11.104;2023-04-24T00:35:30;2.37;;;2.10;;
22665;SDS011;11499;49.486;11.104;2023-04-24T00:37:56;2.47;;;1.93;;
22665;SDS011;11499;49.486;11.104;2023-04-24T00:40:21;2.50;;;2.23;;
22665;SDS011;11499;49.486;11.104;2023-04-24T00:45:26;2.43;;;2.23;;
22665;SDS011;11499;49.486;11.104;2023-04-24T00:47:52;4.30;;;2.20;;
22665;SDS011;11499;49.486;11.104;2023-04-24T00:50:18;3.40;;;2.40;;
22665;SDS011;11499;49.486;11.104;2023-04-24T00:52:46;3.83;;;2.30;;
22665;SDS011;11499;49.486;11.104;2023-04-24T00:55:12;2.60;;;2.40;;
22665;SDS011;11499;49.486;11.104;2023-04-24T00:57:37;2.80;;;2.30;;
22665;SDS011;11499;49.486;11.104;2023-04-24T01:00:04;3.63;;;2.40;;
22665;SDS011;11499;49.486;11.104;2023-04-24T01:02:31;3.63;;;2.27;;
22665;SDS011;11499;49.486;11.104;2023-04-24T01:04:59;2.93;;;2.27;;
22665;SDS011;11499;49.486;11.104;2023-04-24T01:07:25;4.33;;;2.30;;
22665;SDS011;11499;49.486;11.104;2023-04-24T01:12:53;2.43;;;2.23;;
22665;SDS011;11499;49.486;11.104;2023-04-24T01:15:18;3.13;;;2.37;;
22665;SDS011;11499;49.486;11.104;2023-04-24T01:17:44;4.83;;;2.20;;
22665;SDS011;11499;49.486;11.104;2023-04-24T01:20:10;4.53;;;2.27;;
22665;SDS011;11499;49.486;11.104;2023-04-24T01:22:35;2.17;;;1.97;;
22665;SDS011;11499;49.486;11.104;2023-04-24T01:25:02;5.20;;;2.20;;
22665;SDS011;11499;49.486;11.104;2023-04-24T01:27:28;2.47;;;2.27;;
22665;SDS011;11499;49.486;11.104;2023-04-24T01:29:54;2.50;;;2.30;;
22665;SDS011;11499;49.486;11.104;2023-04-24T01:32:19;2.73;;;2.23;;
22665;SDS011;11499;49.486;11.104;2023-04-24T01:34:45;4.10;;;2.40;;
22665;SDS011;11499;49.486;11.104;2023-04-24T01:40:30;2.63;;;2.07;;
22665;SDS011;11499;49.486;11.104;2023-04-24T01:42:56;2.70;;;2.00;;
22665;SDS011;11499;49.486;11.104;2023-04-24T01:45:22;3.40;;;2.00;;
22665;SDS011;11499;49.486;11.104;2023-04-24T01:47:48;1.73;;;1.63;;
22665;SDS011;11499;49.486;11.104;2023-04-24T01:50:15;3.80;;;1.87;;
22665;SDS011;11499;49.486;11.104;2023-04-24T01:52:40;3.63;;;1.77;;
22665;SDS011;11499;49.486;11.104;2023-04-24T01:55:06;2.27;;;1.40;;
22665;SDS011;11499;49.486;11.104;2023-04-24T01:57:32;1.70;;;1.60;;
22665;SDS011;11499;49.486;11.104;2023-04-24T01:59:58;1.80;;;1.57;;
22665;SDS011;11499;49.486;11.104;2023-04-24T02:02:24;3.00;;;1.40;;
22665;SDS011;11499;49.486;11.104;2023-04-24T02:07:53;2.13;;;1.30;;
22665;SDS011;11499;49.486;11.104;2023-04-24T02:10:19;2.67;;;1.27;;
22665;SDS011;11499;49.486;11.104;2023-04-24T02:12:45;2.37;;;1.37;;
22665;SDS011;11499;49.486;11.104;2023-04-24T02:15:10;2.60;;;1.60;;
22665;SDS011;11499;49.486;11.104;2023-04-24T02:17:37;1.30;;;1.07;;
22665;SDS011;11499;49.486;11.104;2023-04-24T02:20:03;1.50;;;1.10;;
22665;SDS011;11499;49.486;11.104;2023-04-24T02:22:29;1.83;;;1.37;;
22665;SDS011;11499;49.486;11.104;2023-04-24T02:24:55;5.33;;;1.50;;
22665;SDS011;11499;49.486;11.104;2023-04-24T02:27:20;1.40;;;1.20;;
22665;SDS011;11499;49.486;11.104;2023-04-24T02:29:46;2.37;;;1.30;;
22665;SDS011;11499;49.486;11.104;2023-04-24T02:34:01;2.27;;;1.30;;
22665;SDS011;11499;49.486;11.104;2023-04-24T02:36:26;1.30;;;1.20;;
22665;SDS011;11499;49.486;11.104;2023-04-24T02:38:52;2.30;;;1.40;;
22665;SDS011;11499;49.486;11.104;2023-04-24T02:41:17;2.33;;;1.20;;
22665;SDS011;11499;49.486;11.104;2023-04-24T02:43:43;1.77;;;1.20;;
22665;SDS011;11499;49.486;11.104;2023-04-24T02:46:09;1.30;;;1.17;;
22665;SDS011;11499;49.486;11.104;2023-04-24T02:48:34;1.10;;;1.00;;
22665;SDS011;11499;49.486;11.104;2023-04-24T02:51:00;4.43;;;1.30;;
22665;SDS011;11499;49.486;11.104;2023-04-24T02:53:25;1.20;;;1.10;;
22665;SDS011;11499;49.486;11.104;2023-04-24T02:55:51;1.67;;;1.20;;
22665;SDS011;11499;49.486;11.104;2023-04-24T03:01:13;1.57;;;1.23;;
22665;SDS011;11499;49.486;11.104;2023-04-24T03:03:39;2.60;;;1.23;;
22665;SDS011;11499;49.486;11.104;2023-04-24T03:06:04;1.40;;;1.30;;
22665;SDS011;11499;49.486;11.104;2023-04-24T03:08:33;2.43;;;1.17;;
22665;SDS011;11499;49.486;11.104;2023-04-24T03:10:59;1.53;;;1.17;;
22665;SDS011;11499;49.486;11.104;2023-04-24T03:13:24;1.90;;;1.13;;
22665;SDS011;11499;49.486;11.104;2023-04-24T03:15:50;2.60;;;1.30;;
22665;SDS011;11499;49.486;11.104;2023-04-24T03:18:16;2.67;;;1.30;;
22665;SDS011;11499;49.486;11.104;2023-04-24T03:20:42;1.30;;;1.13;;
22665;SDS011;11499;49.486;11.104;2023-04-24T03:23:07;2.40;;;1.30;;
22665;SDS011;11499;49.486;11.104;2023-04-24T03:25:33;2.70;;;1.40;;
22665;SDS011;11499;49.486;11.104;2023-04-24T03:27:58;1.90;;;1.63;;
22665;SDS011;11499;49.486;11.104;2023-04-24T03:32:50;2.07;;;1.77;;
22665;SDS011;11499;49.486;11.104;2023-04-24T03:35:15;2.17;;;1.57;;
22665;SDS011;11499;49.486;11.104;2023-04-24T03:37:41;2.43;;;1.77;;
22665;SDS011;11499;49.486;11.104;2023-04-24T03:40:07;3.30;;;1.90;;
22665;SDS011;11499;49.486;11.104;2023-04-24T03:42:33;2.50;;;1.83;;
22665;SDS011;11499;49.486;11.104;2023-04-24T03:44:58;2.20;;;1.73;;
22665;SDS011;11499;49.486;11.104;2023-04-24T03:47:24;2.37;;;1.87;;
22665;SDS011;11499;49.486;11.104;2023-04-24T03:49:49;3.20;;;2.00;;
22665;SDS011;11499;49.486;11.104;2023-04-24T03:52:15;3.67;;;2.03;;
22665;SDS011;11499;49.486;11.104;2023-04-24T03:54:40;3.07;;;1.83;;
22665;SDS011;11499;49.486;11.104;2023-04-24T04:00:06;3.43;;;1.53;;
22665;SDS011;11499;49.486;11.104;2023-04-24T04:02:31;2.57;;;1.73;;
22665;SDS011;11499;49.486;11.104;2023-04-24T04:04:57;3.30;;;1.90;;
22665;SDS011;11499;49.486;11.104;2023-04-24T04:07:22;2.47;;;2.00;;
22665;SDS011;11499;49.486;11.104;2023-04-24T04:09:48;4.37;;;2.03;;
22665;SDS011;11499;49.486;11.104;2023-04-24T04:12:13;2.17;;;1.67;;
22665;SDS011;11499;49.486;11.104;2023-04-24T04:14:39;2.30;;;1.87;;
22665;SDS011;11499;49.486;11.104;2023-04-24T04:17:04;2.90;;;1.90;;
22665;SDS011;11499;49.486;11.104;2023-04-24T04:19:30;2.77;;;1.77;;
22665;SDS011;11499;49.486;11.104;2023-04-24T04:21:55;2.43;;;1.90;;
22665;SDS011;11499;49.486;11.104;2023-04-24T04:27:30;3.00;;;1.70;;
22665;SDS011;11499;49.486;11.104;2023-04-24T04:29:57;2.23;;;1.80;;
22665;SDS011;11499;49.486;11.104;2023-04-24T04:32:26;1.97;;;1.63;;
22665;SDS011;11499;49.486;11.104;2023-04-24T04:34:52;5.27;;;2.00;;
22665;SDS011;11499;49.486;11.104;2023-04-24T04:37:18;3.50;;;1.97;;
22665;SDS011;11499;49.486;11.104;2023-04-24T04:39:44;2.40;;;1.97;;
22665;SDS011;11499;49.486;11.104;2023-04-24T04:42:09;4.37;;;2.10;;
22665;SDS011;11499;49.486;11.104;2023-04-24T04:44:35;2.30;;;1.83;;
22665;SDS011;11499;49.486;11.104;2023-04-24T04:47:01;3.10;;;1.80;;
22665;SDS011;11499;49.486;11.104;2023-04-24T04:49:30;3.00;;;1.77;;
22665;SDS011;11499;49.486;11.104;2023-04-24T04:55:05;2.33;;;1.80;;
22665;SDS011;11499;49.486;11.104;2023-04-24T04:57:31;2.33;;;1.70;;
22665;SDS011;11499;49.486;11.104;2023-04-24T04:59:56;3.73;;;2.90;;
22665;SDS011;11499;49.486;11.104;2023-04-24T05:02:22;2.23;;;2.00;;
22665;SDS011;11499;49.486;11.104;2023-04-24T05:04:47;1.77;;;1.63;;
22665;SDS011;11499;49.486;11.104;2023-04-24T05:07:13;4.37;;;1.90;;
22665;SDS011;11499;49.486;11.104;2023-04-24T05:09:38;3.80;;;1.90;;
22665;SDS011;11499;49.486;11.104;2023-04-24T05:12:04;2.37;;;2.00;;
22665;SDS011;11499;49.486;11.104;2023-04-24T05:14:30;2.70;;;1.70;;
22665;SDS011;11499;49.486;11.104;2023-04-24T05:16:55;2.37;;;2.17;;
22665;SDS011;11499;49.486;11.104;2023-04-24T05:21:59;5.20;;;2.57;;
22665;SDS011;11499;49.486;11.104;2023-04-24T05:24:28;3.60;;;2.60;;
22665;SDS011;11499;49.486;11.104;2023-04-24T05:26:53;4.20;;;3.73;;
22665;SDS011;11499;49.486;11.104;2023-04-24T05:29:19;3.93;;;2.40;;
22665;SDS011;11499;49.486;11.104;2023-04-24T05:31:45;2.83;;;2.30;;
22665;SDS011;11499;49.486;11.104;2023-04-24T05:34:10;3.00;;;2.10;;
22665;SDS011;11499;49.486;11.104;2023-04-24T05:36:36;2.40;;;2.10;;
22665;SDS011;11499;49.486;11.104;2023-04-24T05:39:01;1.67;;;1.57;;
22665;SDS011;11499;49.486;11.104;2023-04-24T05:41:28;2.97;;;2.07;;
22665;SDS011;11499;49.486;11.104;2023-04-24T05:43:54;2.67;;;2.10;;
22665;SDS011;11499;49.486;11.104;2023-04-24T05:49:07;2.67;;;1.80;;
22665;SDS011;11499;49.486;11.104;2023-04-24T05:51:33;3.93;;;1.80;;
22665;SDS011;11499;49.486;11.104;2023-04-24T05:53:58;2.83;;;1.70;;
22665;SDS011;11499;49.486;11.104;2023-04-24T05:56:24;1.80;;;1.70;;
22665;SDS011;11499;49.486;11.104;2023-04-24T05:58:50;3.63;;;2.00;;
22665;SDS011;11499;49.486;11.104;2023-04-24T06:01:15;4.00;;;2.80;;
22665;SDS011;11499;49.486;11.104;2023-04-24T06:03:41;2.33;;;1.90;;
22665;SDS011;11499;49.486;11.104;2023-04-24T06:06:07;4.30;;;2.10;;
22665;SDS011;11499;49.486;11.104;2023-04-24T06:08:34;3.17;;;1.73;;
22665;SDS011;11499;49.486;11.104;2023-04-24T06:13:52;3.00;;;2.13;;
22665;SDS011;11499;49.486;11.104;2023-04-24T06:16:18;2.57;;;2.37;;
22665;SDS011;11499;49.486;11.104;2023-04-24T06:18:43;2.90;;;2.10;;
22665;SDS011;11499;49.486;11.104;2023-04-24T06:21:09;3.47;;;1.90;;
22665;SDS011;11499;49.486;11.104;2023-04-24T06:23:35;2.83;;;1.80;;
22665;SDS011;11499;49.486;11.104;2023-04-24T06:26:01;6.23;;;2.07;;
22665;SDS011;11499;49.486;11.104;2023-04-24T06:28:26;3.90;;;1.80;;
22665;SDS011;11499;49.486;11.104;2023-04-24T06:30:52;3.63;;;1.97;;
22665;SDS011;11499;49.486;11.104;2023-04-24T06:33:17;2.13;;;1.93;;
22665;SDS011;11499;49.486;11.104;2023-04-24T06:35:43;1.70;;;1.60;;
22665;SDS011;11499;49.486;11.104;2023-04-24T06:40:59;2.83;;;1.90;;
22665;SDS011;11499;49.486;11.104;2023-04-24T06:43:24;2.40;;;2.17;;
22665;SDS011;11499;49.486;11.104;2023-04-24T06:45:50;2.47;;;1.80;;
22665;SDS011;11499;49.486;11.104;2023-04-24T06:48:16;1.87;;;1.50;;
22665;SDS011;11499;49.486;11.104;2023-04-24T06:50:41;1.93;;;1.30;;
22665;SDS011;11499;49.486;11.104;2023-04-24T06:53:07;1.53;;;1.20;;
22665;SDS011;11499;49.486;11.104;2023-04-24T06:55:33;1.20;;;0.97;;
22665;SDS011;11499;49.486;11.104;2023-04-24T06:57:58;1.70;;;1.00;;
22665;SDS011;11499;49.486;11.104;2023-04-24T07:00:24;1.90;;;1.03;;
22665;SDS011;11499;49.486;11.104;2023-04-24T07:02:49;1.43;;;1.10;;
22665;SDS011;11499;49.486;11.104;2023-04-24T07:08:00;1.60;;;1.00;;
22665;SDS011;11499;49.486;11.104;2023-04-24T07:10:26;1.40;;;1.13;;
22665;SDS011;11499;49.486;11.104;2023-04-24T07:12:53;1.30;;;1.00;;
22665;SDS011;11499;49.486;11.104;2023-04-24T07:15:19;1.73;;;1.17;;
22665;SDS011;11499;49.486;11.104;2023-04-24T07:17:45;2.37;;;1.70;;
22665;SDS011;11499;49.486;11.104;2023-04-24T07:20:11;2.73;;;1.40;;
22665;SDS011;11499;49.486;11.104;2023-04-24T07:22:40;1.97;;;1.17;;
22665;SDS011;11499;49.486;11.104;2023-04-24T07:25:06;1.00;;;0.90;;
22665;SDS011;11499;49.486;11.104;2023-04-24T07:27:32;3.30;;;1.20;;
22665;SDS011;11499;49.486;11.104;2023-04-24T07:29:58;1.40;;;1.10;;
22665;SDS011;11499;49.486;11.104;2023-04-24T07:35:13;1.20;;;1.10;;
22665;SDS011;11499;49.486;11.104;2023-04-24T07:37:38;1.20;;;1.07;;
22665;SDS011;11499;49.486;11.104;2023-04-24T07:40:04;1.40;;;1.20;;
22665;SDS011;11499;49.486;11.104;2023-04-24T07:42:30;2.10;;;1.47;;
22665;SDS011;11499;49.486;11.104;2023-04-24T07:44:56;1.30;;;1.20;;
22665;SDS011;11499;49.486;11.104;2023-04-24T07:47:21;1.30;;;1.17;;
22665;SDS011;11499;49.486;11.104;2023-04-24T07:49:47;1.90;;;1.70;;
22665;SDS011;11499;49.486;11.104;2023-04-24T07:52:12;1.73;;;1.40;;
22665;SDS011;11499;49.486;11.104;2023-04-24T07:54:38;3.07;;;1.40;;
22665;SDS011;11499;49.486;11.104;2023-04-24T07:57:03;1.63;;;1.17;;
22665;SDS011;11499;49.486;11.104;2023-04-24T08:01:42;1.87;;;1.33;;
22665;SDS011;11499;49.486;11.104;2023-04-24T08:04:08;1.53;;;1.30;;
22665;SDS011;11499;49.486;11.104;2023-04-24T08:06:34;2.23;;;1.30;;
22665;SDS011;11499;49.486;11.104;2023-04-24T08:09:00;1.57;;;1.47;;
22665;SDS011;11499;49.486;11.104;2023-04-24T08:11:26;1.47;;;1.37;;
22665;SDS011;11499;49.486;11.104;2023-04-24T08:13:51;2.23;;;1.47;;
22665;SDS011;11499;49.486;11.104;2023-04-24T08:16:17;3.20;;;1.57;;
22665;SDS011;11499;49.486;11.104;2023-04-24T08:18:42;3.03;;;1.40;;
22665;SDS011;11499;49.486;11.104;2023-04-24T08:21:08;1.90;;;1.30;;
22665;SDS011;11499;49.486;11.104;2023-04-24T08:23:34;1.40;;;1.30;;
22665;SDS011;11499;49.486;11.104;2023-04-24T08:28:53;1.60;;;1.50;;
22665;SDS011;11499;49.486;11.104;2023-04-24T08:31:18;3.90;;;1.57;;
22665;SDS011;11499;49.486;11.104;2023-04-24T08:33:44;2.13;;;1.73;;
22665;SDS011;11499;49.486;11.104;2023-04-24T08:36:10;6.00;;;2.03;;
22665;SDS011;11499;49.486;11.104;2023-04-24T08:38:36;2.97;;;1.63;;
22665;SDS011;11499;49.486;11.104;2023-04-24T08:41:01;2.60;;;1.87;;
22665;SDS011;11499;49.486;11.104;2023-04-24T08:43:27;2.43;;;1.77;;
22665;SDS011;11499;49.486;11.104;2023-04-24T08:45:55;2.00;;;1.80;;
22665;SDS011;11499;49.486;11.104;2023-04-24T08:48:22;2.17;;;1.97;;
22665;SDS011;11499;49.486;11.104;2023-04-24T08:50:50;2.00;;;1.70;;
22665;SDS011;11499;49.486;11.104;2023-04-24T08:55:57;2.00;;;1.80;;
22665;SDS011;11499;49.486;11.104;2023-04-24T08:58:27;2.17;;;1.87;;
22665;SDS011;11499;49.486;11.104;2023-04-24T09:00:56;1.60;;;1.50;;
22665;SDS011;11499;49.486;11.104;2023-04-24T09:03:22;1.77;;;1.67;;
22665;SDS011;11499;49.486;11.104;2023-04-24T09:05:48;2.20;;;2.00;;
22665;SDS011;11499;49.486;11.104;2023-04-24T09:08:16;3.17;;;1.70;;
22665;SDS011;11499;49.486;11.104;2023-04-24T09:10:43;2.27;;;1.90;;
22665;SDS011;11499;49.486;11.104;2023-04-24T09:13:09;2.27;;;1.80;;
22665;SDS011;11499;49.486;11.104;2023-04-24T09:15:35;2.63;;;1.90;;
22665;SDS011;11499;49.486;11.104;2023-04-24T09:18:05;2.13;;;1.80;;
22665;SDS011;11499;49.486;11.104;2023-04-24T09:22:36;1.90;;;1.53;;
22665;SDS011;11499;49.486;11.104;2023-04-24T09:25:02;2.10;;;1.90;;
22665;SDS011;11499;49.486;11.104;2023-04-24T09:27:30;2.77;;;2.00;;
22665;SDS011;11499;49.486;11.104;2023-04-24T09:29:57;2.03;;;1.80;;
22665;SDS011;11499;49.486;11.104;2023-04-24T09:32:23;2.30;;;1.80;;
22665;SDS011;11499;49.486;11.104;2023-04-24T09:35:04;2.37;;;1.90;;
22665;SDS011;11499;49.486;11.104;2023-04-24T09:37:34;2.03;;;1.80;;
22665;SDS011;11499;49.486;11.104;2023-04-24T09:40:08;2.53;;;1.73;;
22665;SDS011;11499;49.486;11.104;2023-04-24T09:42:36;4.03;;;1.97;;
22665;SDS011;11499;49.486;11.104;2023-04-24T09:45:02;2.10;;;1.90;;
22665;SDS011;11499;49.486;11.104;2023-04-24T09:49:50;1.63;;;1.53;;
22665;SDS011;11499;49.486;11.104;2023-04-24T09:52:22;2.13;;;1.70;;
22665;SDS011;11499;49.486;11.104;2023-04-24T09:54:53;2.97;;;1.80;;
22665;SDS011;11499;49.486;11.104;2023-04-24T09:57:19;3.23;;;1.70;;
22665;SDS011;11499;49.486;11.104;2023-04-24T09:59:45;2.30;;;1.70;;
22665;SDS011;11499;49.486;11.104;2023-04-24T10:02:18;3.67;;;2.00;;
22665;SDS011;11499;49.486;11.104;2023-04-24T10:04:53;2.97;;;1.43;;
22665;SDS011;11499;49.486;11.104;2023-04-24T10:07:21;1.63;;;1.30;;
22665;SDS011;11499;49.486;11.104;2023-04-24T10:09:46;3.33;;;1.50;;
22665;SDS011;11499;49.486;11.104;2023-04-24T10:12:12;2.53;;;1.30;;
22665;SDS011;11499;49.486;11.104;2023-04-24T10:17:23;2.97;;;1.30;;
22665;SDS011;11499;49.486;11.104;2023-04-24T10:19:50;3.20;;;1.27;;
22665;SDS011;11499;49.486;11.104;2023-04-24T10:22:16;1.47;;;1.23;;
22665;SDS011;11499;49.486;11.104;2023-04-24T10:24:43;3.23;;;1.10;;
22665;SDS011;11499;49.486;11.104;2023-04-24T10:27:10;2.73;;;1.30;;
22665;SDS011;11499;49.486;11.104;2023-04-24T10:29:36;2.50;;;1.40;;
22665;SDS011;11499;49.486;11.104;2023-04-24T10:32:03;1.87;;;1.30;;
22665;SDS011;11499;49.486;11.104;2023-04-24T10:34:32;2.30;;;1.10;;
22665;SDS011;11499;49.486;11.104;2023-04-24T10:36:57;1.87;;;1.20;;
22665;SDS011;11499;49.486;11.104;2023-04-24T10:42:15;1.40;;;1.03;;
22665;SDS011;11499;49.486;11.104;2023-04-24T10:44:41;0.97;;;0.90;;
22665;SDS011;11499;49.486;11.104;2023-04-24T10:47:07;1.80;;;1.00;;
22665;SDS011;11499;49.486;11.104;2023-04-24T10:49:38;0.80;;;0.80;;
22665;SDS011;11499;49.486;11.104;2023-04-24T10:52:04;1.40;;;0.90;;
22665;SDS011;11499;49.486;11.104;2023-04-24T10:54:36;1.00;;;0.90;;
22665;SDS011;11499;49.486;11.104;2023-04-24T10:59:50;3.13;;;1.10;;
22665;SDS011;11499;49.486;11.104;2023-04-24T11:02:38;1.20;;;1.10;;
22665;SDS011;11499;49.486;11.104;2023-04-24T11:05:05;1.57;;;0.90;;
22665;SDS011;11499;49.486;11.104;2023-04-24T11:09:58;1.83;;;0.77;;
22665;SDS011;11499;49.486;11.104;2023-04-24T11:12:26;1.30;;;0.80;;
22665;SDS011;11499;49.486;11.104;2023-04-24T11:20:02;1.50;;;0.90;;
22665;SDS011;11499;49.486;11.104;2023-04-24T11:22:32;3.37;;;1.40;;
22665;SDS011;11499;49.486;11.104;2023-04-24T11:25:00;1.33;;;1.10;;
22665;SDS011;11499;49.486;11.104;2023-04-24T11:27:47;1.20;;;1.10;;
22665;SDS011;11499;49.486;11.104;2023-04-24T11:30:17;2.40;;;1.30;;
22665;SDS011;11499;49.486;11.104;2023-04-24T11:35:23;1.93;;;1.30;;
22665;SDS011;11499;49.486;11.104;2023-04-24T11:37:53;1.60;;;1.50;;
22665;SDS011;11499;49.486;11.104;2023-04-24T11:40:20;1.30;;;1.20;;
22665;SDS011;11499;49.486;11.104;2023-04-24T11:42:50;1.83;;;1.50;;
22665;SDS011;11499;49.486;11.104;2023-04-24T11:45:18;2.03;;;1.40;;
22665;SDS011;11499;49.486;11.104;2023-04-24T11:47:51;1.80;;;1.30;;
22665;SDS011;11499;49.486;11.104;2023-04-24T11:50:18;2.47;;;1.50;;
22665;SDS011;11499;49.486;11.104;2023-04-24T11:52:47;1.73;;;1.50;;
22665;SDS011;11499;49.486;11.104;2023-04-24T11:57:39;1.87;;;1.50;;
22665;SDS011;11499;49.486;11.104;2023-04-24T12:01:06;1.50;;;1.40;;
22665;SDS011;11499;49.486;11.104;2023-04-24T12:03:32;2.17;;;1.60;;
22665;SDS011;11499;49.486;11.104;2023-04-24T12:06:04;1.40;;;1.20;;
22665;SDS011;11499;49.486;11.104;2023-04-24T12:08:32;1.57;;;1.13;;
22665;SDS011;11499;49.486;11.104;2023-04-24T12:10:59;1.37;;;1.20;;
22665;SDS011;11499;49.486;11.104;2023-04-24T12:13:26;1.50;;;1.40;;
22665;SDS011;11499;49.486;11.104;2023-04-24T12:15:51;2.23;;;1.30;;
22665;SDS011;11499;49.486;11.104;2023-04-24T12:18:17;1.83;;;1.63;;
22665;SDS011;11499;49.486;11.104;2023-04-24T12:20:43;1.40;;;1.30;;
22665;SDS011;11499;49.486;11.104;2023-04-24T12:23:08;1.93;;;1.63;;
22665;SDS011;11499;49.486;11.104;2023-04-24T12:27:17;4.33;;;2.10;;
22665;SDS011;11499;49.486;11.104;2023-04-24T12:29:55;6.40;;;1.67;;
22665;SDS011;11499;49.486;11.104;2023-04-24T12:32:22;1.50;;;1.40;;
22665;SDS011;11499;49.486;11.104;2023-04-24T12:34:50;1.87;;;1.40;;
22665;SDS011;11499;49.486;11.104;2023-04-24T12:37:16;2.40;;;1.50;;
22665;SDS011;11499;49.486;11.104;2023-04-24T12:39:58;1.60;;;1.23;;
22665;SDS011;11499;49.486;11.104;2023-04-24T12:42:44;1.60;;;1.40;;
22665;SDS011;11499;49.486;11.104;2023-04-24T12:45:14;1.77;;;1.40;;
22665;SDS011;11499;49.486;11.104;2023-04-24T12:47:41;2.30;;;1.30;;
22665;SDS011;11499;49.486;11.104;2023-04-24T12:50:08;3.93;;;1.47;;
22665;SDS011;11499;49.486;11.104;2023-04-24T12:54:39;1.30;;;1.20;;
22665;SDS011;11499;49.486;11.104;2023-04-24T12:57:04;1.37;;;1.20;;
22665;SDS011;11499;49.486;11.104;2023-04-24T12:59:30;2.37;;;1.40;;
22665;SDS011;11499;49.486;11.104;2023-04-24T13:01:55;1.97;;;1.40;;
22665;SDS011;11499;49.486;11.104;2023-04-24T13:04:21;1.40;;;1.20;;
22665;SDS011;11499;49.486;11.104;2023-04-24T13:06:46;1.43;;;1.30;;
22665;SDS011;11499;49.486;11.104;2023-04-24T13:09:12;2.30;;;1.43;;
22665;SDS011;11499;49.486;11.104;2023-04-24T13:11:37;1.47;;;1.20;;
22665;SDS011;11499;49.486;11.104;2023-04-24T13:14:03;1.30;;;1.20;;
22665;SDS011;11499;49.486;11.104;2023-04-24T13:18:07;1.17;;;1.07;;
22665;SDS011;11499;49.486;11.104;2023-04-24T13:20:33;1.33;;;1.20;;
22665;SDS011;11499;49.486;11.104;2023-04-24T13:23:00;1.73;;;1.30;;
22665;SDS011;11499;49.486;11.104;2023-04-24T13:25:26;1.40;;;1.30;;
22665;SDS011;11499;49.486;11.104;2023-04-24T13:27:51;1.77;;;1.40;;
22665;SDS011;11499;49.486;11.104;2023-04-24T13:30:17;2.93;;;1.60;;
22665;SDS011;11499;49.486;11.104;2023-04-24T13:32:43;1.57;;;1.47;;
22665;SDS011;11499;49.486;11.104;2023-04-24T13:35:08;1.70;;;1.40;;
22665;SDS011;11499;49.486;11.104;2023-04-24T13:37:34;1.80;;;1.63;;
22665;SDS011;11499;49.486;11.104;2023-04-24T13:40:00;1.70;;;1.50;;
22665;SDS011;11499;49.486;11.104;2023-04-24T13:42:25;1.47;;;1.37;;
22665;SDS011;11499;49.486;11.104;2023-04-24T13:47:27;1.90;;;1.50;;
22665;SDS011;11499;49.486;11.104;2023-04-24T13:49:53;1.87;;;1.67;;
22665;SDS011;11499;49.486;11.104;2023-04-24T13:52:19;1.10;;;1.00;;
22665;SDS011;11499;49.486;11.104;2023-04-24T13:54:45;1.30;;;1.20;;
22665;SDS011;11499;49.486;11.104;2023-04-24T13:57:10;1.57;;;1.30;;
22665;SDS011;11499;49.486;11.104;2023-04-24T13:59:36;1.60;;;1.50;;
22665;SDS011;11499;49.486;11.104;2023-04-24T14:02:02;1.60;;;1.50;;
22665;SDS011;11499;49.486;11.104;2023-04-24T14:04:27;1.63;;;1.53;;
22665;SDS011;11499;49.486;11.104;2023-04-24T14:06:53;1.70;;;1.50;;
22665;SDS011;11499;49.486;11.104;2023-04-24T14:11:58;2.60;;;1.50;;
22665;SDS011;11499;49.486;11.104;2023-04-24T14:14:26;1.80;;;1.67;;
22665;SDS011;11499;49.486;11.104;2023-04-24T14:16:52;1.93;;;1.73;;
22665;SDS011;11499;49.486;11.104;2023-04-24T14:19:17;2.07;;;1.77;;
22665;SDS011;11499;49.486;11.104;2023-04-24T14:21:43;2.07;;;1.80;;
22665;SDS011;11499;49.486;11.104;2023-04-24T14:24:08;1.97;;;1.77;;
22665;SDS011;11499;49.486;11.104;2023-04-24T14:26:34;1.70;;;1.60;;
22665;SDS011;11499;49.486;11.104;2023-04-24T14:29:00;2.13;;;1.67;;
22665;SDS011;11499;49.486;11.104;2023-04-24T14:31:25;2.57;;;1.70;;
22665;SDS011;11499;49.486;11.104;2023-04-24T14:33:52;1.97;;;1.77;;
22665;SDS011;11499;49.486;11.104;2023-04-24T14:38:22;1.70;;;1.57;;
22665;SDS011;11499;49.486;11.104;2023-04-24T14:40:47;2.33;;;1.70;;
22665;SDS011;11499;49.486;11.104;2023-04-24T14:43:13;2.10;;;1.90;;
22665;SDS011;11499;49.486;11.104;2023-04-24T14:45:38;3.27;;;1.60;;
22665;SDS011;11499;49.486;11.104;2023-04-24T14:48:06;2.23;;;1.63;;
22665;SDS011;11499;49.486;11.104;2023-04-24T14:50:32;2.27;;;1.80;;
22665;SDS011;11499;49.486;11.104;2023-04-24T14:52:58;2.33;;;1.20;;
22665;SDS011;11499;49.486;11.104;2023-04-24T14:55:24;2.80;;;1.07;;
22665;SDS011;11499;49.486;11.104;2023-04-24T14:57:51;1.77;;;1.53;;
22665;SDS011;11499;49.486;11.104;2023-04-24T15:00:16;1.67;;;1.50;;
22665;SDS011;11499;49.486;11.104;2023-04-24T15:05:07;1.40;;;1.30;;
22665;SDS011;11499;49.486;11.104;2023-04-24T15:07:33;2.03;;;1.70;;
22665;SDS011;11499;49.486;11.104;2023-04-24T15:10:00;3.20;;;1.90;;
22665;SDS011;11499;49.486;11.104;2023-04-24T15:12:25;2.07;;;1.47;;
22665;SDS011;11499;49.486;11.104;2023-04-24T15:14:51;2.73;;;1.90;;
22665;SDS011;11499;49.486;11.104;2023-04-24T15:17:17;1.67;;;1.57;;
22665;SDS011;11499;49.486;11.104;2023-04-24T15:19:42;1.80;;;1.50;;
22665;SDS011;11499;49.486;11.104;2023-04-24T15:22:07;2.23;;;1.63;;
22665;SDS011;11499;49.486;11.104;2023-04-24T15:24:34;1.83;;;1.60;;
22665;SDS011;11499;49.486;11.104;2023-04-24T15:27:00;2.00;;;1.70;;
22665;SDS011;11499;49.486;11.104;2023-04-24T15:29:26;1.93;;;1.70;;
22665;SDS011;11499;49.486;11.104;2023-04-24T15:34:54;2.30;;;1.90;;
22665;SDS011;11499;49.486;11.104;2023-04-24T15:37:20;2.80;;;1.80;;
22665;SDS011;11499;49.486;11.104;2023-04-24T15:39:45;2.20;;;2.00;;
22665;SDS011;11499;49.486;11.104;2023-04-24T15:42:11;2.10;;;1.80;;
22665;SDS011;11499;49.486;11.104;2023-04-24T15:44:36;2.47;;;2.20;;
22665;SDS011;11499;49.486;11.104;2023-04-24T15:47:02;2.30;;;2.07;;
22665;SDS011;11499;49.486;11.104;2023-04-24T15:49:27;2.10;;;1.90;;
22665;SDS011;11499;49.486;11.104;2023-04-24T15:51:53;2.37;;;1.93;;
22665;SDS011;11499;49.486;11.104;2023-04-24T15:54:18;1.93;;;1.73;;
22665;SDS011;11499;49.486;11.104;2023-04-24T15:56:44;2.57;;;2.07;;
22665;SDS011;11499;49.486;11.104;2023-04-24T16:01:38;2.03;;;1.73;;
22665;SDS011;11499;49.486;11.104;2023-04-24T16:04:04;3.50;;;1.87;;
22665;SDS011;11499;49.486;11.104;2023-04-24T16:06:29;2.17;;;1.97;;
22665;SDS011;11499;49.486;11.104;2023-04-24T16:08:55;2.53;;;2.33;;
22665;SDS011;11499;49.486;11.104;2023-04-24T16:11:21;3.03;;;2.37;;